Time;durP1;ratioP1;P1;durP2;ratioP2;P2;SDS_P1;SDS_P2;PMS_P1;PMS_P2;Temp;Humidity;BMP_temperature;BMP_pressure;BME280_temperature;BME280_humidity;BME280_pressure;Samples;Min_cycle;Max_cycle;Signal;HPM_P1;HPM_P2
2023/08/08 00:01:02;;;;;;;4.57;4.13;;;13.20;99.90;;;;;;4990957;28;20046;-82
2023/08/08 00:03:27;;;;;;;5.32;4.30;;;13.20;99.90;;;;;;4990930;28;20112;-82
2023/08/08 00:05:53;;;;;;;5.57;3.90;;;13.20;99.90;;;;;;4982196;28;20046;-83
2023/08/08 00:08:18;;;;;;;6.43;3.95;;;13.20;99.90;;;;;;4989188;28;20038;-82
2023/08/08 00:10:44;;;;;;;4.50;3.80;;;13.20;99.90;;;;;;4989469;28;20100;-82
2023/08/08 00:13:10;;;;;;;5.57;3.80;;;13.20;99.90;;;;;;4983300;28;20125;-82
2023/08/08 00:15:36;;;;;;;5.20;4.00;;;13.20;99.90;;;;;;4989602;28;20136;-81
2023/08/08 00:18:02;;;;;;;6.05;3.95;;;13.20;99.90;;;;;;4990179;28;20046;-81
2023/08/08 00:20:27;;;;;;;7.13;4.70;;;13.20;99.90;;;;;;4988997;28;20034;-82
2023/08/08 00:22:53;;;;;;;5.70;4.15;;;13.20;99.90;;;;;;4990330;28;20042;-82
2023/08/08 00:25:18;;;;;;;6.18;4.30;;;13.20;99.90;;;;;;4988371;28;20054;-82
2023/08/08 00:27:44;;;;;;;6.20;4.35;;;13.30;99.90;;;;;;4990690;28;20042;-82
2023/08/08 00:30:12;;;;;;;6.53;4.75;;;13.30;99.90;;;;;;4989375;28;20162;-82
2023/08/08 00:32:38;;;;;;;5.53;4.60;;;13.30;99.90;;;;;;4991693;28;20097;-84
2023/08/08 00:35:04;;;;;;;6.65;4.90;;;13.30;99.90;;;;;;4990761;28;20054;-82
2023/08/08 00:37:29;;;;;;;6.05;4.50;;;13.30;99.90;;;;;;4990049;28;20104;-82
2023/08/08 00:39:55;;;;;;;5.97;4.63;;;13.30;99.90;;;;;;4987188;28;20492;-83
2023/08/08 00:42:21;;;;;;;7.57;4.60;;;13.40;99.90;;;;;;4989716;28;20081;-82
2023/08/08 00:44:46;;;;;;;5.40;4.78;;;13.30;99.90;;;;;;4989737;28;20077;-83
2023/08/08 00:47:12;;;;;;;8.13;4.82;;;13.40;99.90;;;;;;4990091;28;20039;-82
2023/08/08 00:49:38;;;;;;;5.75;4.20;;;13.40;99.90;;;;;;4988845;28;20185;-83
2023/08/08 00:52:05;;;;;;;5.55;4.60;;;13.40;99.90;;;;;;4989318;28;20085;-83
2023/08/08 00:54:31;;;;;;;6.20;4.43;;;13.40;99.90;;;;;;4971791;28;20046;-83
2023/08/08 00:56:57;;;;;;;5.30;4.80;;;13.40;99.90;;;;;;4989075;28;20101;-83
2023/08/08 00:59:23;;;;;;;7.75;4.80;;;13.40;99.90;;;;;;4968800;28;20169;-83
2023/08/08 01:01:49;;;;;;;7.82;5.15;;;13.50;99.90;;;;;;4974914;28;20157;-83
2023/08/08 01:04:16;;;;;;;5.90;5.30;;;13.40;99.90;;;;;;4988825;28;20565;-82
2023/08/08 01:06:55;;;;;;;6.25;5.20;;;13.40;99.90;;;;;;4989058;28;20046;-82
2023/08/08 01:09:32;;;;;;;6.90;4.57;;;13.50;99.90;;;;;;4986193;28;20509;-83
2023/08/08 01:11:59;;;;;;;6.57;4.28;;;13.50;99.90;;;;;;4987867;28;20532;-82
2023/08/08 01:14:28;;;;;;;5.60;4.78;;;13.50;99.90;;;;;;4988780;28;20547;-83
2023/08/08 01:16:57;;;;;;;5.63;4.53;;;13.50;99.90;;;;;;4989977;28;20046;-83
2023/08/08 01:19:27;;;;;;;7.80;5.03;;;13.50;99.90;;;;;;4987450;28;20034;-82
2023/08/08 01:21:54;;;;;;;9.77;4.60;;;13.50;99.90;;;;;;4989728;28;20093;-82
2023/08/08 01:24:21;;;;;;;5.97;4.88;;;13.50;99.90;;;;;;4970255;28;20042;-83
2023/08/08 01:26:47;;;;;;;10.02;4.65;;;13.50;99.90;;;;;;4988600;28;20141;-83
2023/08/08 01:29:13;;;;;;;5.53;4.57;;;13.50;99.90;;;;;;4987654;28;20078;-83
2023/08/08 01:31:39;;;;;;;6.55;4.57;;;13.50;99.90;;;;;;4989827;28;20469;-82
2023/08/08 01:34:04;;;;;;;7.78;4.90;;;13.40;99.90;;;;;;4985835;28;20088;-83
2023/08/08 01:36:47;;;;;;;7.35;4.72;;;13.50;99.90;;;;;;4987142;28;20060;-83
2023/08/08 01:39:17;;;;;;;6.40;4.90;;;13.50;99.90;;;;;;4988739;28;20507;-83
2023/08/08 01:41:44;;;;;;;7.18;4.40;;;13.40;99.90;;;;;;4988993;28;20046;-82
2023/08/08 01:44:10;;;;;;;5.25;4.75;;;13.50;99.90;;;;;;4987488;28;20074;-82
2023/08/08 01:46:38;;;;;;;7.40;4.72;;;13.40;99.90;;;;;;4986679;28;20050;-83
2023/08/08 01:49:03;;;;;;;9.50;5.00;;;13.50;99.90;;;;;;4987876;28;20125;-83
2023/08/08 01:51:29;;;;;;;7.50;4.72;;;13.40;99.90;;;;;;4988348;28;20544;-82
2023/08/08 01:53:55;;;;;;;7.30;4.43;;;13.40;99.90;;;;;;4988105;28;20453;-82
2023/08/08 01:56:21;;;;;;;5.65;4.47;;;13.50;99.90;;;;;;4986227;28;20467;-82
2023/08/08 01:58:47;;;;;;;7.50;4.53;;;13.40;99.90;;;;;;4984235;28;20073;-82
2023/08/08 02:01:13;;;;;;;7.20;4.78;;;13.40;99.90;;;;;;4975927;28;20100;-82
2023/08/08 02:03:39;;;;;;;7.72;4.85;;;13.40;99.90;;;;;;4988668;28;20046;-81
2023/08/08 02:06:04;;;;;;;8.98;4.82;;;13.40;99.90;;;;;;4987653;28;20575;-83
2023/08/08 02:08:30;;;;;;;6.15;4.70;;;13.40;99.90;;;;;;4987915;28;20050;-82
2023/08/08 02:10:55;;;;;;;6.53;4.65;;;13.40;99.90;;;;;;4986944;28;20050;-82
2023/08/08 02:13:21;;;;;;;6.55;4.45;;;13.40;99.90;;;;;;4986511;28;20046;-82
2023/08/08 02:15:47;;;;;;;4.63;4.18;;;13.40;99.90;;;;;;4987641;28;20137;-82
2023/08/08 02:18:12;;;;;;;5.90;4.25;;;13.40;99.90;;;;;;4990424;28;20588;-82
2023/08/08 02:20:38;;;;;;;8.18;4.65;;;13.40;99.90;;;;;;4987793;28;20122;-82
2023/08/08 02:23:03;;;;;;;6.30;4.55;;;13.40;99.90;;;;;;4990320;28;20054;-82
2023/08/08 02:25:30;;;;;;;5.60;4.57;;;13.40;99.90;;;;;;4989893;28;20384;-82
2023/08/08 02:27:56;;;;;;;5.93;4.70;;;13.40;99.90;;;;;;4989085;28;20105;-82
2023/08/08 02:30:22;;;;;;;7.43;4.82;;;13.40;99.90;;;;;;4987189;28;20042;-83
2023/08/08 02:32:47;;;;;;;6.28;4.22;;;13.40;99.90;;;;;;4979897;28;20133;-82
2023/08/08 02:35:13;;;;;;;7.78;5.00;;;13.40;99.90;;;;;;4988064;28;20078;-82
2023/08/08 02:37:39;;;;;;;9.38;4.95;;;13.40;99.90;;;;;;4987547;28;20093;-82
2023/08/08 02:40:06;;;;;;;6.85;5.03;;;13.40;99.90;;;;;;4988902;28;20145;-82
2023/08/08 02:42:31;;;;;;;6.57;5.07;;;13.40;99.90;;;;;;4987942;28;20100;-82
2023/08/08 02:44:57;;;;;;;8.95;5.07;;;13.40;99.90;;;;;;4988268;28;20077;-81
2023/08/08 02:47:23;;;;;;;9.10;4.80;;;13.40;99.90;;;;;;4985027;28;20366;-81
2023/08/08 02:49:49;;;;;;;6.60;4.78;;;13.40;99.90;;;;;;4991161;28;20046;-82
2023/08/08 02:52:14;;;;;;;9.25;5.72;;;13.40;99.90;;;;;;4991754;28;20054;-82
2023/08/08 02:54:40;;;;;;;9.50;5.25;;;13.40;99.90;;;;;;4991725;28;20050;-82
2023/08/08 02:57:06;;;;;;;8.73;5.20;;;13.40;99.90;;;;;;4991243;28;20049;-82
2023/08/08 02:59:31;;;;;;;8.48;5.43;;;13.50;99.90;;;;;;4993821;28;20046;-82
2023/08/08 03:01:57;;;;;;;9.68;5.30;;;13.50;99.90;;;;;;4993543;28;20567;-82
2023/08/08 03:04:22;;;;;;;8.25;5.53;;;13.50;99.90;;;;;;4990729;28;20043;-82
2023/08/08 03:06:48;;;;;;;9.00;5.70;;;13.40;99.90;;;;;;4990750;28;20050;-82
2023/08/08 03:09:14;;;;;;;10.38;5.55;;;13.40;99.90;;;;;;4989614;28;20049;-82
2023/08/08 03:11:41;;;;;;;10.07;5.80;;;13.40;99.90;;;;;;4991206;28;20416;-82
2023/08/08 03:14:08;;;;;;;9.65;5.93;;;13.40;99.90;;;;;;4993359;28;20050;-83
2023/08/08 03:16:33;;;;;;;9.50;5.43;;;13.40;99.90;;;;;;4993939;28;20128;-83
2023/08/08 03:18:59;;;;;;;7.10;5.28;;;13.30;99.90;;;;;;4991823;28;20070;-83
2023/08/08 03:21:24;;;;;;;9.68;5.55;;;13.30;99.90;;;;;;4992588;28;20058;-82
2023/08/08 03:23:50;;;;;;;9.48;5.47;;;13.40;99.90;;;;;;4990311;28;20489;-81
2023/08/08 03:26:16;;;;;;;8.77;5.63;;;13.30;99.90;;;;;;4991792;28;20046;-82
2023/08/08 03:28:41;;;;;;;8.80;5.78;;;13.30;99.90;;;;;;4991751;28;20050;-82
2023/08/08 03:31:07;;;;;;;11.18;5.43;;;13.30;99.90;;;;;;4981889;28;20053;-81
2023/08/08 03:33:33;;;;;;;9.27;5.20;;;13.30;99.90;;;;;;4984295;28;20039;-82
2023/08/08 03:35:58;;;;;;;11.20;5.57;;;13.20;99.90;;;;;;4975121;28;20792;-81
2023/08/08 03:38:24;;;;;;;7.97;5.57;;;13.20;99.90;;;;;;4988680;28;20130;-82
2023/08/08 03:40:50;;;;;;;10.05;4.90;;;13.20;99.90;;;;;;4982415;28;20050;-82
2023/08/08 03:43:16;;;;;;;9.43;5.35;;;13.20;99.90;;;;;;4989028;28;20102;-81
2023/08/08 03:45:42;;;;;;;9.85;5.10;;;13.20;99.90;;;;;;4990012;28;21220;-82
2023/08/08 03:48:07;;;;;;;11.00;5.18;;;13.20;99.90;;;;;;4987598;28;20061;-82
2023/08/08 03:50:33;;;;;;;8.63;5.18;;;13.10;99.90;;;;;;4971349;28;20049;-83
2023/08/08 03:52:58;;;;;;;11.00;5.38;;;13.10;99.90;;;;;;4982278;28;20050;-83
2023/08/08 03:55:25;;;;;;;9.75;4.82;;;13.00;99.90;;;;;;4989394;28;20042;-82
2023/08/08 03:57:50;;;;;;;8.82;5.15;;;13.00;99.90;;;;;;4987589;28;20051;-82
2023/08/08 04:00:16;;;;;;;8.40;4.85;;;13.00;99.90;;;;;;4982992;28;20050;-82
2023/08/08 04:02:42;;;;;;;7.55;4.68;;;13.00;99.90;;;;;;4988098;28;20050;-82
2023/08/08 04:05:08;;;;;;;13.02;4.50;;;13.00;99.90;;;;;;4989941;28;20054;-81
2023/08/08 04:07:34;;;;;;;7.35;4.45;;;13.00;99.90;;;;;;4987727;28;20046;-81
2023/08/08 04:09:59;;;;;;;8.73;4.43;;;13.00;99.90;;;;;;4989775;28;20053;-81
2023/08/08 04:12:25;;;;;;;7.32;4.30;;;12.90;99.90;;;;;;4988154;28;20046;-82
2023/08/08 04:14:51;;;;;;;6.03;3.83;;;12.90;99.90;;;;;;4989430;28;20042;-82
2023/08/08 04:17:16;;;;;;;7.53;3.70;;;12.90;99.90;;;;;;4989378;28;20046;-82
2023/08/08 04:19:42;;;;;;;9.82;4.00;;;12.90;99.90;;;;;;4989147;28;20500;-81
2023/08/08 04:22:07;;;;;;;10.00;3.55;;;12.90;99.90;;;;;;4987833;28;20084;-82
2023/08/08 04:24:33;;;;;;;5.35;3.13;;;12.80;99.90;;;;;;4989274;28;20082;-82
2023/08/08 04:26:58;;;;;;;6.10;3.55;;;12.90;99.90;;;;;;4989182;28;20046;-81
2023/08/08 04:29:24;;;;;;;6.60;3.30;;;12.80;99.90;;;;;;4988576;28;20046;-82
2023/08/08 04:31:49;;;;;;;9.25;3.60;;;12.80;99.90;;;;;;4970381;28;20157;-81
2023/08/08 04:34:17;;;;;;;6.28;2.75;;;12.80;99.90;;;;;;4984066;28;20077;-81
2023/08/08 04:36:42;;;;;;;5.53;2.60;;;12.80;99.90;;;;;;4971776;28;20057;-81
2023/08/08 04:39:08;;;;;;;5.32;2.80;;;12.80;99.90;;;;;;4984792;28;20158;-82
2023/08/08 04:41:33;;;;;;;8.00;2.45;;;12.80;99.90;;;;;;4970379;28;20187;-81
2023/08/08 04:43:59;;;;;;;3.70;2.53;;;12.90;99.90;;;;;;4986027;28;20066;-82
2023/08/08 04:46:24;;;;;;;5.28;2.50;;;12.80;99.90;;;;;;4988900;28;20043;-82
2023/08/08 04:48:50;;;;;;;4.97;2.22;;;12.80;99.90;;;;;;4986875;28;20407;-81
2023/08/08 04:51:16;;;;;;;6.47;2.20;;;12.90;99.90;;;;;;4988086;28;20042;-81
2023/08/08 04:53:42;;;;;;;6.45;2.08;;;13.00;99.90;;;;;;4987467;28;20069;-82
2023/08/08 04:56:07;;;;;;;3.13;1.95;;;12.90;99.90;;;;;;4988411;28;20086;-82
2023/08/08 04:58:33;;;;;;;4.55;2.17;;;13.00;99.90;;;;;;4982852;28;20042;-82
2023/08/08 05:00:59;;;;;;;7.13;2.58;;;13.00;99.90;;;;;;4979652;28;20462;-82
2023/08/08 05:03:24;;;;;;;5.55;1.88;;;13.00;99.90;;;;;;4986916;28;20066;-82
2023/08/08 05:05:50;;;;;;;9.75;2.13;;;13.10;99.90;;;;;;4975373;28;20652;-82
2023/08/08 05:08:16;;;;;;;5.40;2.13;;;13.10;99.90;;;;;;4987063;28;20050;-82
2023/08/08 05:10:41;;;;;;;4.80;2.20;;;13.10;99.90;;;;;;4988967;28;20042;-82
2023/08/08 05:13:07;;;;;;;4.53;1.83;;;13.20;99.90;;;;;;4988408;28;20061;-82
2023/08/08 05:15:33;;;;;;;3.95;1.90;;;13.20;99.90;;;;;;4985621;28;20121;-83
2023/08/08 05:17:59;;;;;;;3.97;1.65;;;13.30;99.90;;;;;;4987565;28;20443;-82
2023/08/08 05:20:25;;;;;;;5.65;2.10;;;13.50;99.90;;;;;;4979162;28;20412;-82
2023/08/08 05:22:51;;;;;;;4.38;1.63;;;13.60;99.90;;;;;;4968418;28;20046;-82
2023/08/08 05:25:17;;;;;;;5.05;1.90;;;13.70;99.90;;;;;;4980348;28;20353;-81
2023/08/08 05:27:42;;;;;;;3.33;1.60;;;13.80;99.90;;;;;;4982529;28;20057;-82
2023/08/08 05:30:08;;;;;;;8.27;2.05;;;13.90;99.90;;;;;;4987173;28;20046;-82
2023/08/08 05:32:34;;;;;;;7.05;1.77;;;14.10;99.90;;;;;;4984137;28;20064;-82
2023/08/08 05:35:00;;;;;;;4.75;1.60;;;14.10;99.90;;;;;;4970229;28;20086;-81
2023/08/08 05:37:26;;;;;;;5.13;1.38;;;14.20;99.90;;;;;;4968949;28;20054;-82
2023/08/08 05:39:52;;;;;;;6.95;1.50;;;14.20;99.90;;;;;;4973350;28;20202;-82
2023/08/08 05:42:18;;;;;;;7.38;1.80;;;14.30;99.90;;;;;;4988686;28;20053;-83
2023/08/08 05:44:44;;;;;;;4.90;1.40;;;14.50;99.90;;;;;;4985002;28;20070;-82
2023/08/08 05:47:10;;;;;;;4.82;1.60;;;14.30;99.90;;;;;;4986493;28;20050;-83
2023/08/08 05:49:36;;;;;;;5.35;1.50;;;14.40;99.90;;;;;;4983664;28;20050;-83
2023/08/08 05:52:01;;;;;;;2.72;1.30;;;14.40;99.90;;;;;;4978528;28;20404;-84
2023/08/08 05:54:28;;;;;;;3.97;1.67;;;14.40;99.90;;;;;;4980834;28;20081;-84
2023/08/08 05:56:53;;;;;;;5.00;2.08;;;14.40;99.90;;;;;;4974817;28;20086;-84
2023/08/08 05:59:19;;;;;;;5.47;1.58;;;14.30;99.90;;;;;;4970567;28;20755;-83
2023/08/08 06:01:46;;;;;;;4.43;1.40;;;14.30;99.90;;;;;;4978100;28;20092;-83
2023/08/08 06:04:11;;;;;;;2.72;1.13;;;14.30;99.90;;;;;;4985984;28;20051;-83
2023/08/08 06:06:37;;;;;;;4.53;1.40;;;14.40;99.90;;;;;;4979288;28;20046;-84
2023/08/08 06:09:03;;;;;;;5.15;1.42;;;14.80;99.90;;;;;;4968920;28;20049;-83
2023/08/08 06:11:28;;;;;;;3.63;1.50;;;15.90;99.90;;;;;;4980526;28;20145;-84
2023/08/08 06:13:55;;;;;;;4.20;1.50;;;16.90;99.90;;;;;;4987634;28;20042;-84
2023/08/08 06:16:21;;;;;;;6.28;1.35;;;17.70;99.90;;;;;;4987709;28;20046;-84
2023/08/08 06:18:46;;;;;;;4.47;1.17;;;18.30;99.90;;;;;;4987206;28;20073;-83
2023/08/08 06:21:12;;;;;;;5.05;1.25;;;18.70;99.90;;;;;;4988096;28;20046;-82
2023/08/08 06:23:38;;;;;;;4.18;1.05;;;18.90;99.90;;;;;;4987118;28;20385;-83
2023/08/08 06:26:03;;;;;;;4.97;1.55;;;18.20;99.90;;;;;;4981832;28;20062;-84
2023/08/08 06:28:30;;;;;;;4.10;1.10;;;17.70;99.90;;;;;;4972960;28;20794;-82
2023/08/08 06:30:57;;;;;;;5.00;1.30;;;17.20;99.90;;;;;;4969528;28;20138;-83
2023/08/08 06:33:23;;;;;;;2.47;1.00;;;16.90;99.90;;;;;;4979708;28;20481;-82
2023/08/08 06:35:49;;;;;;;3.65;1.35;;;16.70;99.90;;;;;;4970800;28;20132;-80
2023/08/08 06:38:14;;;;;;;4.25;1.45;;;16.60;99.90;;;;;;4967851;28;20141;-81
2023/08/08 06:40:40;;;;;;;4.03;1.30;;;16.40;99.90;;;;;;4957891;28;20098;-80
2023/08/08 06:43:05;;;;;;;7.05;1.45;;;16.40;99.90;;;;;;4973616;28;20047;-80
2023/08/08 06:45:31;;;;;;;6.05;1.65;;;16.40;99.90;;;;;;4973684;28;20088;-80
2023/08/08 06:47:57;;;;;;;4.72;1.45;;;16.40;99.90;;;;;;4984916;28;20050;-80
2023/08/08 06:50:24;;;;;;;2.92;1.00;;;16.40;99.90;;;;;;4986565;28;20096;-80
2023/08/08 06:52:50;;;;;;;3.83;1.35;;;16.40;99.90;;;;;;4979737;28;20142;-80
2023/08/08 06:55:15;;;;;;;5.13;1.33;;;16.50;99.90;;;;;;4984960;28;20564;-81
2023/08/08 06:57:41;;;;;;;4.90;1.40;;;16.50;99.90;;;;;;4968035;28;20050;-82
2023/08/08 07:00:08;;;;;;;4.07;1.25;;;16.60;99.90;;;;;;4978839;28;20043;-82
2023/08/08 07:02:34;;;;;;;5.85;1.17;;;16.70;99.90;;;;;;4966817;28;20089;-80
2023/08/08 07:04:59;;;;;;;4.50;1.15;;;16.70;99.90;;;;;;4982721;28;20078;-81
2023/08/08 07:07:25;;;;;;;6.55;1.55;;;16.80;99.90;;;;;;4986566;28;20046;-80
2023/08/08 07:09:50;;;;;;;4.80;1.35;;;16.90;99.90;;;;;;4987886;28;20512;-81
2023/08/08 07:12:16;;;;;;;3.33;1.73;;;17.00;99.90;;;;;;4974306;28;20053;-82
2023/08/08 07:14:42;;;;;;;5.45;1.20;;;17.10;99.90;;;;;;4978161;28;20039;-82
2023/08/08 07:17:07;;;;;;;3.83;1.30;;;17.20;99.90;;;;;;4979686;28;20129;-80
2023/08/08 07:19:33;;;;;;;5.07;1.02;;;17.20;99.90;;;;;;4987629;28;20108;-80
2023/08/08 07:21:58;;;;;;;2.45;1.20;;;17.30;99.90;;;;;;4970134;28;20130;-80
2023/08/08 07:24:28;;;;;;;6.55;0.98;;;17.30;99.90;;;;;;4967433;28;20085;-80
2023/08/08 07:26:58;;;;;;;4.40;1.08;;;17.40;99.90;;;;;;4968156;28;20817;-82
2023/08/08 07:29:24;;;;;;;3.08;1.00;;;17.50;99.90;;;;;;4969721;28;20129;-81
2023/08/08 07:31:54;;;;;;;2.67;0.98;;;17.50;99.90;;;;;;4987703;28;20559;-82
2023/08/08 07:34:20;;;;;;;2.45;1.10;;;17.60;99.90;;;;;;4967167;28;20371;-82
2023/08/08 07:36:47;;;;;;;10.30;1.95;;;17.70;99.90;;;;;;4971687;28;20066;-81
2023/08/08 07:39:12;;;;;;;5.43;1.10;;;17.70;99.90;;;;;;4972844;28;20390;-80
2023/08/08 07:41:38;;;;;;;2.88;1.30;;;17.70;99.90;;;;;;4979789;28;20125;-81
2023/08/08 07:44:05;;;;;;;3.40;1.13;;;17.70;99.90;;;;;;4990789;28;20448;-81
2023/08/08 07:46:30;;;;;;;3.30;1.00;;;18.10;99.90;;;;;;4989462;28;20515;-81
2023/08/08 07:48:59;;;;;;;3.55;0.85;;;18.10;99.90;;;;;;4981434;28;20046;-80
2023/08/08 07:51:25;;;;;;;2.45;0.90;;;18.10;99.90;;;;;;4980655;28;20505;-81
2023/08/08 07:53:50;;;;;;;2.85;1.20;;;18.30;99.90;;;;;;4988424;28;20046;-81
2023/08/08 07:56:16;;;;;;;2.75;0.90;;;18.30;99.90;;;;;;4988799;28;20406;-81
2023/08/08 07:58:41;;;;;;;0.85;0.80;;;18.40;99.90;;;;;;4989316;28;20471;-82
2023/08/08 08:01:07;;;;;;;2.08;0.88;;;18.30;99.90;;;;;;4988226;28;20043;-81
2023/08/08 08:03:32;;;;;;;3.75;0.88;;;18.50;99.90;;;;;;4984845;28;20050;-81
2023/08/08 08:05:58;;;;;;;2.95;1.00;;;18.20;99.90;;;;;;4978636;28;20404;-81
2023/08/08 08:08:24;;;;;;;3.30;0.90;;;18.20;99.90;;;;;;4988080;28;20050;-81
2023/08/08 08:10:50;;;;;;;2.78;1.00;;;18.20;99.90;;;;;;4982418;28;20166;-82
2023/08/08 08:13:16;;;;;;;4.28;0.98;;;18.20;99.90;;;;;;4988839;28;20141;-81
2023/08/08 08:15:43;;;;;;;3.85;1.05;;;18.20;99.90;;;;;;4989500;28;20597;-82
2023/08/08 08:18:08;;;;;;;3.03;1.00;;;18.20;99.90;;;;;;4988354;28;20054;-82
2023/08/08 08:20:34;;;;;;;3.58;1.00;;;18.10;99.90;;;;;;4990278;28;20040;-81
2023/08/08 08:23:00;;;;;;;4.32;1.35;;;18.10;99.90;;;;;;4966374;28;20125;-80
2023/08/08 08:25:25;;;;;;;3.00;1.00;;;18.20;99.90;;;;;;4970227;28;20110;-81
2023/08/08 08:27:51;;;;;;;3.58;1.00;;;18.30;99.90;;;;;;4985189;28;20047;-81
2023/08/08 08:30:16;;;;;;;2.67;0.90;;;18.30;99.90;;;;;;4977526;28;20145;-80
2023/08/08 08:32:42;;;;;;;2.78;1.27;;;18.30;99.90;;;;;;4989675;28;20141;-80
2023/08/08 08:35:08;;;;;;;3.65;1.20;;;18.40;99.90;;;;;;4989346;28;20057;-81
2023/08/08 08:37:35;;;;;;;7.22;1.20;;;18.40;99.90;;;;;;4987811;28;20092;-80
2023/08/08 08:40:00;;;;;;;2.83;0.90;;;18.40;99.90;;;;;;4988969;28;20053;-81
2023/08/08 08:42:27;;;;;;;3.28;0.85;;;18.40;99.90;;;;;;4989643;28;20046;-80
2023/08/08 08:44:58;;;;;;;2.53;0.90;;;18.40;99.90;;;;;;4973499;28;20050;-82
2023/08/08 08:47:24;;;;;;;3.05;1.00;;;18.40;99.90;;;;;;4969958;28;20090;-82
2023/08/08 08:49:52;;;;;;;4.22;1.00;;;18.60;99.90;;;;;;4979909;28;20134;-82
2023/08/08 08:52:18;;;;;;;3.28;0.90;;;18.60;99.90;;;;;;4990047;28;20062;-82
2023/08/08 08:54:43;;;;;;;4.43;0.80;;;18.60;99.90;;;;;;4988503;28;20043;-82
2023/08/08 08:57:09;;;;;;;4.38;1.08;;;18.70;99.90;;;;;;4988669;28;20397;-83
2023/08/08 08:59:35;;;;;;;3.13;1.08;;;18.70;99.90;;;;;;4980763;28;20126;-82
2023/08/08 09:02:01;;;;;;;4.22;1.13;;;18.80;99.90;;;;;;4984068;28;20133;-82
2023/08/08 09:04:29;;;;;;;3.40;0.90;;;18.70;99.90;;;;;;4976120;28;20100;-83
2023/08/08 09:06:55;;;;;;;2.92;1.02;;;18.80;99.90;;;;;;4987770;28;20056;-81
2023/08/08 09:09:22;;;;;;;4.03;1.05;;;18.80;99.90;;;;;;4987677;28;20050;-81
2023/08/08 09:11:55;;;;;;;6.05;1.10;;;18.70;99.90;;;;;;4989838;28;20046;-81
2023/08/08 09:14:23;;;;;;;5.35;0.88;;;18.60;99.90;;;;;;4988131;28;20058;-82
2023/08/08 09:16:52;;;;;;;5.13;1.13;;;18.60;99.90;;;;;;4987906;28;20481;-81
2023/08/08 09:19:18;;;;;;;2.83;0.80;;;18.70;99.90;;;;;;4987343;28;20054;-81
2023/08/08 09:21:44;;;;;;;3.53;1.05;;;18.80;99.90;;;;;;4985429;28;20047;-82
2023/08/08 09:24:10;;;;;;;3.92;1.20;;;18.70;99.90;;;;;;4987893;28;20062;-81
2023/08/08 09:26:36;;;;;;;2.28;0.82;;;18.60;99.90;;;;;;4988065;28;20493;-81
2023/08/08 09:29:03;;;;;;;3.55;1.00;;;18.80;99.90;;;;;;4986698;28;20055;-81
2023/08/08 09:31:30;;;;;;;3.58;1.00;;;19.00;99.90;;;;;;4971393;28;20038;-82
2023/08/08 09:34:01;;;;;;;2.22;0.70;;;19.10;99.90;;;;;;4989550;28;20047;-82
2023/08/08 09:36:26;;;;;;;1.33;0.70;;;19.10;99.90;;;;;;4988339;28;20054;-82
2023/08/08 09:38:56;;;;;;;4.07;1.23;;;18.90;99.90;;;;;;4968145;28;20557;-81
2023/08/08 09:41:23;;;;;;;3.47;1.13;;;18.50;99.90;;;;;;4981724;28;20108;-82
2023/08/08 09:43:50;;;;;;;2.55;1.00;;;18.10;99.90;;;;;;4988431;28;20425;-81
2023/08/08 09:46:16;;;;;;;4.10;1.13;;;17.80;99.90;;;;;;4988383;28;20529;-82
2023/08/08 09:48:42;;;;;;;2.22;0.85;;;17.60;99.90;;;;;;4987430;28;20042;-83
2023/08/08 09:51:08;;;;;;;2.88;1.02;;;17.50;99.90;;;;;;4987371;28;20050;-81
2023/08/08 09:53:35;;;;;;;2.03;0.80;;;17.70;99.90;;;;;;4984726;28;20149;-81
2023/08/08 09:56:03;;;;;;;4.45;1.20;;;17.80;99.90;;;;;;4987575;28;20050;-81
2023/08/08 09:58:30;;;;;;;2.35;1.02;;;18.10;99.90;;;;;;4988247;28;21055;-84
2023/08/08 10:00:55;;;;;;;2.75;0.88;;;18.40;99.90;;;;;;4971045;28;20078;-82
2023/08/08 10:03:22;;;;;;;3.00;1.00;;;18.70;99.90;;;;;;4989355;28;20100;-82
2023/08/08 10:05:48;;;;;;;3.13;1.10;;;18.90;99.90;;;;;;4974912;28;20055;-82
2023/08/08 10:08:17;;;;;;;3.63;1.00;;;18.60;99.90;;;;;;4970286;28;20058;-83
2023/08/08 10:10:46;;;;;;;3.47;1.00;;;18.40;99.90;;;;;;4981280;28;20093;-84
2023/08/08 10:13:23;;;;;;;1.70;0.80;;;18.00;99.90;;;;;;4984517;28;20077;-84
2023/08/08 10:15:51;;;;;;;6.50;0.90;;;17.90;99.90;;;;;;4969519;28;20794;-83
2023/08/08 10:18:17;;;;;;;3.67;0.90;;;17.90;99.90;;;;;;4980533;28;20047;-82
2023/08/08 10:20:47;;;;;;;3.25;1.10;;;18.00;99.90;;;;;;4978608;28;20089;-82
2023/08/08 10:23:17;;;;;;;2.15;0.90;;;18.20;99.90;;;;;;4983935;28;20078;-82
2023/08/08 10:25:52;;;;;;;2.97;1.20;;;18.30;99.90;;;;;;4978869;28;20505;-82
2023/08/08 10:28:19;;;;;;;2.55;1.08;;;18.60;99.90;;;;;;4979110;28;20057;-83
2023/08/08 10:30:52;;;;;;;2.50;0.88;;;18.80;99.90;;;;;;4971369;28;20043;-82
2023/08/08 10:33:26;;;;;;;3.33;0.90;;;18.80;99.90;;;;;;4966928;28;20501;-82
2023/08/08 10:36:04;;;;;;;1.65;0.82;;;18.60;99.90;;;;;;4968250;28;20054;-82
2023/08/08 10:38:43;;;;;;;3.38;1.13;;;18.40;99.90;;;;;;4957044;28;20050;-82
2023/08/08 10:41:17;;;;;;;2.40;0.98;;;18.30;99.90;;;;;;4986112;28;20042;-82
2023/08/08 10:43:53;;;;;;;2.67;0.90;;;18.30;99.90;;;;;;4987909;28;20065;-81
2023/08/08 10:46:29;;;;;;;3.40;1.20;;;18.50;99.90;;;;;;4984053;28;20051;-82
2023/08/08 10:49:05;;;;;;;3.97;1.17;;;18.60;99.90;;;;;;4967284;28;20054;-82
2023/08/08 10:51:46;;;;;;;3.70;0.90;;;18.40;99.90;;;;;;4981243;28;20512;-83
2023/08/08 10:54:18;;;;;;;3.42;1.20;;;18.20;99.90;;;;;;4983642;28;20046;-83
2023/08/08 10:56:54;;;;;;;5.43;1.35;;;18.20;99.90;;;;;;4987630;28;20058;-81
2023/08/08 10:59:36;;;;;;;4.07;1.30;;;18.10;99.90;;;;;;4981627;28;20121;-82
2023/08/08 11:02:03;;;;;;;5.63;1.48;;;18.10;99.90;;;;;;4973964;28;20380;-82
2023/08/08 11:04:30;;;;;;;4.05;1.00;;;18.00;99.90;;;;;;4969424;28;20180;-82
2023/08/08 11:06:56;;;;;;;4.65;1.10;;;17.90;99.90;;;;;;4987257;28;20046;-82
2023/08/08 11:09:22;;;;;;;5.63;1.08;;;17.70;99.90;;;;;;4983834;28;20141;-82
2023/08/08 11:11:49;;;;;;;3.25;1.13;;;17.80;99.90;;;;;;4973990;28;20050;-83
2023/08/08 11:14:17;;;;;;;3.47;1.00;;;17.90;99.90;;;;;;4970927;28;20042;-83
2023/08/08 11:16:44;;;;;;;1.67;0.98;;;18.20;99.90;;;;;;4968333;28;20061;-82
2023/08/08 11:19:11;;;;;;;4.82;1.20;;;18.50;99.90;;;;;;4991182;28;20038;-83
2023/08/08 11:21:42;;;;;;;3.58;1.17;;;18.80;99.90;;;;;;4992106;28;20093;-84
2023/08/08 11:24:08;;;;;;;4.22;1.13;;;19.00;99.90;;;;;;4989437;28;20497;-84
2023/08/08 11:26:35;;;;;;;2.00;0.73;;;19.00;99.90;;;;;;4971548;28;20843;-84
2023/08/08 11:29:02;;;;;;;3.17;1.20;;;19.10;99.90;;;;;;4972513;28;20043;-82
2023/08/08 11:31:29;;;;;;;3.97;1.05;;;19.10;99.90;;;;;;4988778;28;20057;-83
2023/08/08 11:33:56;;;;;;;2.97;1.02;;;19.20;99.90;;;;;;4991748;28;20145;-81
2023/08/08 11:36:23;;;;;;;5.53;1.30;;;19.40;99.90;;;;;;4991273;28;20061;-80
2023/08/08 11:38:50;;;;;;;4.20;1.00;;;19.40;99.90;;;;;;4990820;28;20060;-83
2023/08/08 11:41:19;;;;;;;2.55;1.10;;;19.20;99.90;;;;;;4988040;28;20061;-82
2023/08/08 11:43:46;;;;;;;2.78;1.02;;;19.10;99.90;;;;;;4973715;28;20049;-81
2023/08/08 11:46:15;;;;;;;6.10;1.20;;;18.90;99.90;;;;;;4971465;28;20057;-79
2023/08/08 11:48:41;;;;;;;5.05;1.25;;;18.70;99.90;;;;;;4980866;28;20042;-84
2023/08/08 11:51:08;;;;;;;3.58;1.00;;;18.80;99.90;;;;;;4972356;28;20051;-81
2023/08/08 11:53:35;;;;;;;3.42;1.20;;;19.00;99.90;;;;;;4981772;28;20042;-82
2023/08/08 11:56:03;;;;;;;4.25;1.20;;;19.30;99.90;;;;;;4969402;28;20100;-81
2023/08/08 11:58:30;;;;;;;3.08;1.20;;;19.30;99.90;;;;;;4980321;28;20057;-81
2023/08/08 12:00:56;;;;;;;1.92;1.00;;;19.30;99.90;;;;;;4970740;28;20059;-81
2023/08/08 12:03:24;;;;;;;2.25;1.00;;;19.50;99.90;;;;;;4973401;28;20134;-81
2023/08/08 12:05:50;;;;;;;2.83;1.13;;;19.50;99.90;;;;;;4952975;28;20149;-83
2023/08/08 12:08:19;;;;;;;5.13;1.10;;;19.50;99.60;;;;;;4977743;28;20133;-82
2023/08/08 12:10:51;;;;;;;2.95;1.00;;;19.50;99.80;;;;;;4967848;28;20058;-82
2023/08/08 12:13:20;;;;;;;3.33;0.98;;;19.70;99.90;;;;;;4985578;28;20046;-82
2023/08/08 12:15:46;;;;;;;5.25;1.20;;;19.90;99.90;;;;;;4988697;28;20042;-83
2023/08/08 12:18:15;;;;;;;1.50;0.70;;;20.00;99.90;;;;;;4982754;28;20068;-82
2023/08/08 12:20:41;;;;;;;5.90;1.23;;;20.20;99.60;;;;;;4976080;28;20710;-82
2023/08/08 12:23:06;;;;;;;3.38;1.10;;;20.10;98.00;;;;;;4987534;28;20128;-82
2023/08/08 12:25:33;;;;;;;3.58;1.00;;;19.90;97.20;;;;;;4988419;28;20039;-83
2023/08/08 12:27:58;;;;;;;2.75;1.20;;;19.90;97.00;;;;;;4988163;28;20054;-83
2023/08/08 12:30:24;;;;;;;3.47;0.90;;;20.00;97.40;;;;;;4987360;28;20050;-84
2023/08/08 12:32:49;;;;;;;2.15;0.90;;;20.10;97.30;;;;;;4988530;28;20136;-83
2023/08/08 12:35:16;;;;;;;1.75;0.80;;;20.20;97.00;;;;;;4989975;28;20049;-82
2023/08/08 12:37:42;;;;;;;2.45;1.23;;;20.20;96.60;;;;;;4989830;28;20403;-82
2023/08/08 12:40:08;;;;;;;4.40;1.08;;;20.20;96.60;;;;;;4973167;28;20046;-82
2023/08/08 12:42:33;;;;;;;6.07;1.08;;;20.20;96.50;;;;;;4968794;28;20105;-81